createdAt,value
2019-03-26T00:00:08.740Z,86.00
2019-03-26T00:02:42.553Z,85.20
2019-03-26T00:05:16.159Z,84.30
2019-03-26T00:07:49.877Z,84.80
2019-03-26T00:10:23.355Z,84.60
2019-03-26T00:12:57.461Z,83.70
2019-03-26T00:15:31.457Z,83.10
2019-03-26T00:18:05.362Z,83.60
2019-03-26T00:20:39.270Z,83.90
2019-03-26T00:23:14.369Z,84.20
2019-03-26T00:25:49.196Z,84.60
2019-03-26T00:28:22.648Z,84.90
2019-03-26T00:30:56.253Z,84.90
2019-03-26T00:33:36.331Z,84.60
2019-03-26T00:36:07.037Z,84.60
2019-03-26T00:38:40.999Z,84.20
2019-03-26T00:41:15.143Z,84.60
2019-03-26T00:43:48.632Z,84.00
2019-03-26T00:46:22.490Z,82.30
2019-03-26T00:48:56.179Z,81.40
2019-03-26T00:51:29.934Z,81.30
2019-03-26T00:54:03.837Z,79.40
2019-03-26T00:56:37.386Z,79.20
2019-03-26T00:59:11.099Z,78.90
2019-03-26T01:01:44.778Z,79.70
2019-03-26T01:04:31.769Z,78.50
2019-03-26T01:06:55.219Z,78.10
2019-03-26T01:09:29.118Z,78.10
2019-03-26T01:12:02.757Z,78.30
2019-03-26T01:14:37.249Z,77.40
2019-03-26T01:17:11.492Z,76.90
2019-03-26T01:19:46.320Z,77.30
2019-03-26T01:22:20.038Z,77.90
2019-03-26T01:24:55.225Z,77.00
2019-03-26T01:27:28.711Z,77.00
2019-03-26T01:30:02.563Z,77.60
2019-03-26T01:32:37.461Z,77.30
2019-03-26T01:35:11.605Z,78.40
2019-03-26T01:37:45.477Z,77.60
2019-03-26T01:40:21.212Z,78.40
2019-03-26T01:42:55.194Z,78.30
2019-03-26T01:45:31.327Z,79.10
2019-03-26T01:48:04.196Z,79.20
2019-03-26T01:50:37.135Z,79.80
2019-03-26T01:53:10.013Z,81.00
2019-03-26T01:55:42.954Z,80.80
2019-03-26T01:58:15.847Z,80.70
2019-03-26T02:00:48.988Z,81.50
2019-03-26T02:03:21.834Z,81.80
2019-03-26T02:05:55.034Z,82.20
2019-03-26T02:08:27.906Z,82.40
2019-03-26T02:11:00.785Z,82.80
2019-03-26T02:13:33.656Z,83.50
2019-03-26T02:16:06.478Z,84.00
2019-03-26T02:18:39.258Z,84.10
2019-03-26T02:21:13.126Z,84.50
2019-03-26T02:23:46.029Z,85.00
2019-03-26T02:26:18.947Z,84.80
2019-03-26T02:28:51.910Z,84.80
2019-03-26T02:31:24.730Z,85.40
2019-03-26T02:33:57.656Z,85.20
2019-03-26T02:36:30.582Z,85.50
2019-03-26T02:39:04.744Z,85.50
2019-03-26T02:41:38.204Z,85.30
2019-03-26T02:44:11.422Z,85.80
2019-03-26T02:46:44.670Z,86.10
2019-03-26T02:49:17.681Z,86.40
2019-03-26T02:52:02.266Z,86.90
2019-03-26T02:54:36.334Z,87.30
2019-03-26T02:57:09.905Z,87.10
2019-03-26T02:59:44.382Z,87.50
2019-03-26T03:02:18.231Z,87.10
2019-03-26T03:04:51.910Z,87.00
2019-03-26T03:07:25.448Z,87.30
2019-03-26T03:09:59.214Z,87.20
2019-03-26T03:12:32.825Z,87.60
2019-03-26T03:15:07.272Z,87.70
2019-03-26T03:17:41.189Z,87.70
2019-03-26T03:20:15.092Z,87.90
2019-03-26T03:22:49.086Z,88.10
2019-03-26T03:25:22.868Z,88.10
2019-03-26T03:27:56.585Z,88.50
2019-03-26T03:30:30.523Z,88.70
2019-03-26T03:33:04.527Z,88.60
2019-03-26T03:35:51.368Z,88.60
2019-03-26T03:38:13.720Z,89.10
2019-03-26T03:40:47.452Z,89.00
2019-03-26T03:43:21.557Z,89.60
2019-03-26T03:45:56.665Z,89.50
2019-03-26T03:48:30.959Z,90.00
2019-03-26T03:51:07.874Z,90.00
2019-03-26T03:53:41.574Z,90.00
2019-03-26T03:56:17.535Z,90.10
2019-03-26T03:58:53.285Z,90.10
2019-03-26T04:01:28.594Z,90.30
2019-03-26T04:04:02.225Z,90.40
2019-03-26T04:06:37.128Z,90.40
2019-03-26T04:09:10.695Z,90.50
2019-03-26T04:11:44.791Z,90.70
2019-03-26T04:14:18.166Z,90.60
2019-03-26T04:16:51.697Z,90.70
2019-03-26T04:19:25.444Z,90.80
2019-03-26T04:21:59.287Z,90.80
2019-03-26T04:24:33.068Z,90.90
2019-03-26T04:27:06.899Z,91.10
2019-03-26T04:29:40.737Z,91.20
2019-03-26T04:32:14.749Z,91.50
2019-03-26T04:34:48.707Z,91.50
2019-03-26T04:37:22.640Z,91.30
2019-03-26T04:39:56.376Z,91.20
2019-03-26T04:42:30.326Z,91.10
2019-03-26T04:45:04.233Z,91.20
2019-03-26T04:47:38.081Z,91.30
2019-03-26T04:50:11.822Z,91.40
2019-03-26T04:52:46.343Z,91.40
2019-03-26T04:55:20.412Z,91.60
2019-03-26T04:57:54.408Z,91.70
2019-03-26T05:00:28.432Z,91.60
2019-03-26T05:03:03.859Z,91.50
2019-03-26T05:05:37.518Z,91.70
2019-03-26T05:08:11.241Z,91.80
2019-03-26T05:10:45.089Z,91.80
2019-03-26T05:13:19.005Z,91.90
2019-03-26T05:15:52.744Z,91.90
2019-03-26T05:18:27.112Z,92.00
2019-03-26T05:21:01.058Z,92.10
2019-03-26T05:23:35.013Z,92.00
2019-03-26T05:26:09.958Z,92.10
2019-03-26T05:28:43.927Z,92.00
2019-03-26T05:31:17.944Z,92.00
2019-03-26T05:33:51.826Z,92.10
2019-03-26T05:36:25.885Z,92.00
2019-03-26T05:38:59.723Z,91.90
2019-03-26T05:41:33.548Z,91.90
2019-03-26T05:44:08.802Z,91.80
2019-03-26T05:46:42.550Z,92.20
2019-03-26T05:49:16.642Z,91.60
2019-03-26T05:51:50.663Z,91.70
2019-03-26T05:54:24.506Z,91.60
2019-03-26T05:57:00.808Z,91.50
2019-03-26T05:59:34.614Z,91.40
2019-03-26T06:02:15.243Z,91.10
2019-03-26T06:04:46.521Z,90.90
2019-03-26T06:07:20.673Z,90.70
2019-03-26T06:09:54.832Z,90.20
2019-03-26T06:12:28.619Z,90.30
2019-03-26T06:15:03.900Z,90.10
2019-03-26T06:17:37.601Z,90.10
2019-03-26T06:20:13.415Z,89.40
2019-03-26T06:22:47.273Z,89.10
2019-03-26T06:25:21.392Z,89.60
2019-03-26T06:27:55.104Z,90.00
2019-03-26T06:30:28.781Z,88.70
2019-03-26T06:33:02.825Z,88.60
2019-03-26T06:35:37.113Z,88.10
2019-03-26T06:38:10.882Z,86.90
2019-03-26T06:54:04.457Z,83.30
2019-03-26T06:56:37.461Z,82.50
2019-03-26T06:59:10.290Z,81.70
2019-03-26T07:01:43.139Z,81.80
2019-03-26T07:04:15.978Z,81.60
2019-03-26T07:06:48.749Z,81.60
2019-03-26T07:09:21.625Z,82.00
2019-03-26T07:11:54.470Z,81.30
2019-03-26T07:14:27.241Z,81.40
2019-03-26T07:17:00.151Z,80.80
2019-03-26T07:19:32.872Z,80.40
2019-03-26T07:22:05.885Z,80.30
2019-03-26T07:24:38.636Z,79.60
2019-03-26T07:27:11.625Z,79.70
2019-03-26T07:29:44.523Z,80.60
2019-03-26T07:32:17.401Z,79.60
2019-03-26T07:34:51.363Z,78.20
2019-03-26T07:37:24.268Z,77.50
2019-03-26T07:39:57.142Z,76.80
2019-03-26T07:42:29.906Z,77.90
2019-03-26T07:45:02.706Z,77.80
2019-03-26T07:47:35.592Z,77.80
2019-03-26T07:50:09.690Z,77.70
2019-03-26T07:52:42.447Z,77.20
2019-03-26T07:55:15.727Z,76.80
2019-03-26T07:57:48.722Z,76.60
2019-03-26T08:00:32.743Z,76.00
2019-03-26T08:03:06.048Z,75.60
2019-03-26T08:05:39.019Z,74.80
2019-03-26T08:08:11.868Z,74.50
2019-03-26T08:10:44.640Z,75.00
2019-03-26T08:13:17.723Z,74.80
2019-03-26T08:15:50.691Z,74.60
2019-03-26T08:18:23.639Z,74.70
2019-03-26T08:20:57.609Z,74.90
2019-03-26T08:23:30.621Z,75.70
2019-03-26T08:26:03.565Z,75.40
2019-03-26T08:28:36.492Z,75.30
2019-03-26T08:31:09.487Z,75.10
2019-03-26T08:33:42.306Z,75.20
2019-03-26T08:36:15.131Z,75.60
2019-03-26T08:38:48.209Z,74.80
2019-03-26T08:41:21.288Z,74.90
2019-03-26T08:43:54.974Z,74.50
2019-03-26T08:46:27.862Z,74.50
2019-03-26T08:49:00.818Z,74.30
2019-03-26T08:51:33.727Z,74.00
2019-03-26T08:54:06.637Z,73.30
2019-03-26T08:56:39.630Z,72.90
2019-03-26T08:59:12.866Z,73.10
2019-03-26T09:01:45.674Z,73.70
2019-03-26T09:04:18.618Z,72.90
2019-03-26T09:06:51.612Z,72.60
2019-03-26T09:09:24.561Z,71.90
2019-03-26T09:11:57.348Z,71.50
2019-03-26T09:14:30.195Z,71.70
2019-03-26T09:17:03.062Z,70.60
2019-03-26T09:19:36.018Z,70.30
2019-03-26T09:22:09.055Z,70.40
2019-03-26T09:24:41.985Z,70.20
2019-03-26T09:27:15.165Z,70.10
2019-03-26T09:29:48.048Z,70.80
2019-03-26T09:32:21.094Z,70.40
2019-03-26T09:34:54.011Z,70.60
2019-03-26T09:37:26.877Z,70.20
2019-03-26T09:39:59.855Z,70.20
2019-03-26T09:42:32.891Z,69.50
2019-03-26T09:45:06.785Z,70.90
2019-03-26T09:47:39.844Z,70.30
2019-03-26T09:50:13.681Z,70.40
2019-03-26T09:52:46.565Z,70.90
2019-03-26T09:55:19.517Z,71.00
2019-03-26T09:57:52.366Z,70.60
2019-03-26T10:00:25.316Z,70.90
2019-03-26T10:02:58.327Z,70.30
2019-03-26T10:05:31.330Z,70.20
2019-03-26T10:08:04.250Z,70.60
2019-03-26T10:10:37.260Z,70.70
2019-03-26T10:13:10.197Z,69.20
2019-03-26T10:15:43.148Z,69.30
2019-03-26T10:18:16.202Z,69.40
2019-03-26T10:20:49.242Z,67.50
2019-03-26T10:23:22.201Z,67.10
2019-03-26T10:25:55.040Z,67.80
2019-03-26T10:28:28.085Z,67.70
2019-03-26T10:31:01.052Z,66.90
2019-03-26T10:33:33.995Z,67.70
2019-03-26T10:36:07.078Z,66.90
2019-03-26T10:38:40.007Z,67.00
2019-03-26T10:41:12.935Z,66.80
2019-03-26T10:43:45.824Z,67.10
2019-03-26T10:46:18.767Z,66.10
2019-03-26T10:48:51.795Z,66.40
2019-03-26T10:51:24.757Z,66.20
2019-03-26T10:53:57.758Z,66.10
2019-03-26T10:56:32.611Z,65.30
2019-03-26T10:59:05.544Z,64.40
2019-03-26T11:01:38.494Z,64.30
2019-03-26T11:04:11.618Z,64.20
2019-03-26T11:06:44.642Z,64.50
2019-03-26T11:09:24.170Z,64.20
2019-03-26T11:11:52.428Z,64.10
2019-03-26T11:14:25.229Z,64.40
2019-03-26T11:16:58.432Z,65.70
2019-03-26T11:19:31.431Z,64.60
2019-03-26T11:22:04.389Z,64.30
2019-03-26T11:24:37.644Z,63.60
2019-03-26T11:27:10.844Z,64.50
2019-03-26T11:29:43.954Z,64.10
2019-03-26T11:32:17.007Z,64.00
2019-03-26T11:34:49.915Z,63.70
2019-03-26T11:37:22.955Z,63.90
2019-03-26T11:39:56.080Z,63.50
2019-03-26T11:42:28.970Z,64.60
2019-03-26T11:45:01.938Z,63.90
2019-03-26T11:47:35.052Z,64.40
2019-03-26T11:50:08.553Z,64.30
2019-03-26T11:52:41.754Z,64.70
2019-03-26T11:55:14.953Z,65.00
2019-03-26T11:57:48.035Z,65.20
2019-03-26T12:00:25.574Z,65.60
2019-03-26T12:02:58.600Z,65.40
2019-03-26T12:05:31.511Z,65.00
2019-03-26T12:08:05.914Z,65.00
2019-03-26T12:10:38.895Z,65.80
2019-03-26T12:13:12.034Z,65.00
2019-03-26T12:15:45.115Z,65.40
2019-03-26T12:18:18.366Z,65.30
2019-03-26T12:20:51.438Z,64.50
2019-03-26T12:23:24.538Z,65.00
2019-03-26T12:25:57.632Z,64.60
2019-03-26T12:28:30.811Z,64.30
2019-03-26T12:31:03.895Z,64.20
2019-03-26T12:33:36.944Z,64.30
2019-03-26T12:36:09.923Z,64.40
2019-03-26T12:38:42.918Z,64.40
2019-03-26T12:41:16.155Z,63.90
2019-03-26T12:43:49.007Z,62.90
2019-03-26T12:46:21.891Z,63.10
2019-03-26T12:48:54.794Z,64.20
2019-03-26T12:51:27.787Z,63.00
2019-03-26T12:54:00.911Z,62.50
2019-03-26T12:56:34.056Z,61.90
2019-03-26T12:59:07.076Z,62.00
2019-03-26T13:01:40.201Z,62.10
2019-03-26T13:04:16.642Z,61.40
2019-03-26T13:06:47.807Z,61.70
2019-03-26T13:09:21.034Z,61.80
2019-03-26T13:11:54.009Z,61.40
2019-03-26T13:14:27.062Z,61.10
2019-03-26T13:17:00.025Z,61.10
2019-03-26T13:19:33.146Z,60.40
2019-03-26T13:22:06.238Z,60.70
2019-03-26T13:24:39.288Z,60.70
2019-03-26T13:27:12.386Z,60.50
2019-03-26T13:29:45.561Z,60.80
2019-03-26T13:32:18.517Z,60.40
2019-03-26T13:34:51.597Z,60.90
2019-03-26T13:37:24.555Z,61.20
2019-03-26T13:39:57.668Z,60.80
2019-03-26T13:42:31.184Z,60.00
2019-03-26T13:45:04.453Z,59.70
2019-03-26T13:47:37.696Z,60.10
2019-03-26T13:50:12.395Z,59.80
2019-03-26T13:52:45.498Z,60.20
2019-03-26T13:55:18.915Z,60.00
2019-03-26T13:57:52.378Z,60.40
2019-03-26T14:00:37.461Z,60.20
2019-03-26T14:03:10.984Z,60.30
2019-03-26T14:05:44.028Z,60.00
2019-03-26T14:08:17.262Z,60.00
2019-03-26T14:10:50.384Z,60.40
2019-03-26T14:13:23.352Z,60.30
2019-03-26T14:15:56.301Z,60.30
2019-03-26T14:18:29.444Z,60.60
2019-03-26T14:21:02.455Z,60.00
2019-03-26T14:23:35.462Z,59.70
2019-03-26T14:26:08.781Z,60.40
2019-03-26T14:28:41.778Z,59.90
2019-03-26T14:31:14.744Z,60.30
2019-03-26T14:33:47.753Z,59.80
2019-03-26T14:36:20.723Z,59.90
2019-03-26T14:38:53.877Z,60.20
2019-03-26T14:41:27.123Z,59.70
2019-03-26T14:44:00.083Z,59.50
2019-03-26T14:46:33.348Z,59.40
2019-03-26T14:49:06.552Z,59.10
2019-03-26T14:51:39.646Z,59.30
2019-03-26T14:54:12.640Z,59.30
2019-03-26T14:56:45.771Z,59.10
2019-03-26T14:59:18.865Z,59.40
2019-03-26T15:01:52.085Z,59.20
2019-03-26T15:04:25.159Z,59.50
2019-03-26T15:06:58.375Z,59.80
2019-03-26T15:09:31.663Z,60.40
2019-03-26T15:12:04.993Z,60.00
2019-03-26T15:14:37.980Z,59.70
2019-03-26T15:17:11.068Z,60.10
2019-03-26T15:19:44.285Z,59.70
2019-03-26T15:22:17.423Z,59.70
2019-03-26T15:24:50.497Z,59.90
2019-03-26T15:27:23.515Z,59.50
2019-03-26T15:29:56.872Z,59.00
2019-03-26T15:32:29.937Z,59.10
2019-03-26T15:35:03.059Z,58.80
2019-03-26T15:37:36.188Z,59.00
2019-03-26T15:40:09.844Z,59.30
2019-03-26T15:42:42.752Z,59.10
2019-03-26T15:45:16.516Z,59.10
2019-03-26T15:47:49.748Z,58.70
2019-03-26T15:50:54.018Z,58.10
2019-03-26T15:53:27.118Z,58.30
2019-03-26T15:56:00.299Z,58.30
2019-03-26T15:58:33.345Z,58.60
2019-03-26T16:01:06.493Z,58.60
2019-03-26T16:03:39.686Z,58.60
2019-03-26T16:06:12.855Z,58.60
2019-03-26T16:08:46.114Z,58.70
2019-03-26T16:11:19.419Z,58.90
2019-03-26T16:13:52.562Z,58.80
2019-03-26T16:16:25.847Z,58.50
2019-03-26T16:18:59.064Z,58.50
2019-03-26T16:21:32.006Z,58.50
2019-03-26T16:24:05.282Z,58.30
2019-03-26T16:26:38.535Z,57.80
2019-03-26T16:29:11.774Z,58.30
2019-03-26T16:31:44.978Z,58.60
2019-03-26T16:34:18.630Z,58.90
2019-03-26T16:36:59.361Z,59.20
2019-03-26T16:39:26.523Z,59.30
2019-03-26T16:41:59.737Z,59.50
2019-03-26T16:44:33.035Z,59.20
2019-03-26T16:47:06.072Z,59.30
2019-03-26T16:49:39.104Z,59.60
2019-03-26T16:52:12.310Z,59.70
2019-03-26T16:54:45.623Z,59.90
2019-03-26T16:57:20.543Z,59.90
2019-03-26T16:59:53.635Z,59.80
2019-03-26T17:02:27.101Z,60.00
2019-03-26T17:05:00.528Z,60.20
2019-03-26T17:07:33.516Z,60.30
2019-03-26T17:10:08.384Z,60.30
2019-03-26T17:12:42.588Z,60.50
2019-03-26T17:15:15.961Z,60.50
2019-03-26T17:17:48.986Z,60.40
2019-03-26T17:20:23.968Z,60.50
2019-03-26T17:22:57.385Z,60.60
2019-03-26T17:25:30.725Z,60.80
2019-03-26T17:28:04.177Z,60.90
2019-03-26T17:30:37.495Z,61.00
2019-03-26T17:33:10.734Z,61.10
2019-03-26T17:35:43.891Z,61.40
2019-03-26T17:38:16.776Z,62.00
2019-03-26T17:40:49.919Z,61.70
2019-03-26T17:43:23.065Z,61.90
2019-03-26T17:45:56.141Z,62.10
2019-03-26T17:48:29.349Z,62.60
2019-03-26T17:51:02.632Z,62.90
2019-03-26T17:53:35.756Z,62.70
2019-03-26T17:56:08.840Z,62.70
2019-03-26T17:58:41.850Z,63.00
2019-03-26T18:01:15.114Z,63.40
2019-03-26T18:03:48.870Z,63.60
2019-03-26T18:06:22.073Z,63.30
2019-03-26T18:08:55.399Z,63.80
2019-03-26T18:11:28.390Z,63.80
2019-03-26T18:14:01.867Z,63.70
2019-03-26T18:16:35.086Z,63.60
2019-03-26T18:19:08.470Z,64.00
2019-03-26T18:21:51.318Z,64.00
2019-03-26T18:24:16.361Z,64.20
2019-03-26T18:26:49.734Z,64.50
2019-03-26T18:29:22.981Z,65.10
2019-03-26T18:31:56.218Z,65.50
2019-03-26T18:34:29.657Z,65.70
2019-03-26T18:37:03.091Z,65.70
2019-03-26T18:39:36.230Z,66.20
2019-03-26T18:42:09.675Z,66.10
2019-03-26T18:44:44.405Z,66.20
2019-03-26T18:47:17.652Z,66.50
2019-03-26T18:49:50.928Z,66.90
2019-03-26T18:52:24.559Z,66.80
2019-03-26T18:54:58.162Z,67.00
2019-03-26T18:57:31.516Z,67.20
2019-03-26T19:00:05.212Z,66.80
2019-03-26T19:02:38.799Z,66.90
2019-03-26T19:05:12.698Z,67.90
2019-03-26T19:07:47.885Z,67.50
2019-03-26T19:10:32.665Z,67.80
2019-03-26T19:13:18.780Z,67.90
2019-03-26T19:15:41.439Z,67.80
2019-03-26T19:18:14.303Z,67.70
2019-03-26T19:21:00.992Z,68.00
2019-03-26T19:23:22.295Z,67.80
2019-03-26T19:25:55.564Z,67.30
2019-03-26T19:28:28.607Z,67.30
2019-03-26T19:31:02.750Z,66.90
2019-03-26T19:33:35.874Z,68.00
2019-03-26T19:36:09.073Z,67.50
2019-03-26T19:38:44.015Z,67.40
2019-03-26T19:41:17.103Z,67.40
2019-03-26T19:43:50.005Z,67.00
2019-03-26T19:46:22.934Z,67.30
2019-03-26T19:48:56.058Z,67.80
2019-03-26T19:51:29.160Z,67.90
2019-03-26T19:54:02.038Z,67.20
2019-03-26T19:56:35.329Z,67.10
2019-03-26T19:59:08.706Z,66.60
2019-03-26T20:01:41.788Z,67.00
2019-03-26T20:04:14.884Z,66.20
2019-03-26T20:06:47.900Z,66.20
2019-03-26T20:09:20.931Z,65.50
2019-03-26T20:11:54.019Z,66.20
2019-03-26T20:14:27.043Z,66.70
2019-03-26T20:17:00.006Z,65.70
2019-03-26T20:19:33.107Z,67.10
2019-03-26T20:22:06.454Z,66.30
2019-03-26T20:24:39.505Z,66.40
2019-03-26T20:27:12.675Z,65.10
2019-03-26T20:29:45.739Z,64.80
2019-03-26T20:32:19.962Z,64.50
2019-03-26T20:34:52.994Z,64.00
2019-03-26T20:37:25.930Z,65.00
2019-03-26T20:39:59.226Z,63.50
2019-03-26T20:42:32.147Z,64.50
2019-03-26T20:45:05.854Z,63.80
2019-03-26T20:47:39.108Z,63.80
2019-03-26T20:50:14.509Z,63.80
2019-03-26T20:52:47.555Z,63.50
2019-03-26T20:55:33.974Z,64.10
2019-03-26T20:58:07.453Z,64.10
2019-03-26T21:00:44.482Z,63.40
2019-03-26T21:03:17.516Z,63.20
2019-03-26T21:05:50.339Z,63.50
2019-03-26T21:08:23.266Z,63.00
2019-03-26T21:10:56.191Z,62.90
2019-03-26T21:13:29.241Z,63.50
2019-03-26T21:16:02.283Z,63.00
2019-03-26T21:18:35.212Z,63.10
2019-03-26T21:21:08.303Z,63.50
2019-03-26T21:23:41.443Z,64.10
2019-03-26T21:26:14.543Z,63.60
2019-03-26T21:28:47.687Z,63.40
2019-03-26T21:31:20.825Z,63.80
2019-03-26T21:33:53.935Z,63.70
2019-03-26T21:36:27.077Z,64.20
2019-03-26T21:39:00.020Z,63.50
2019-03-26T21:41:33.046Z,63.60
2019-03-26T21:44:06.071Z,63.60
2019-03-26T21:46:39.037Z,63.80
2019-03-26T21:49:12.098Z,64.30
2019-03-26T21:51:45.034Z,63.90
2019-03-26T21:54:18.053Z,64.40
2019-03-26T21:56:51.118Z,64.00
2019-03-26T21:59:24.187Z,64.10
2019-03-26T22:01:57.085Z,63.70
2019-03-26T22:04:30.113Z,63.90
2019-03-26T22:07:03.207Z,63.40
2019-03-26T22:09:36.323Z,64.40
2019-03-26T22:12:09.903Z,64.40
2019-03-26T22:14:42.907Z,64.00
2019-03-26T22:17:15.908Z,64.10
2019-03-26T22:19:48.933Z,64.40
2019-03-26T22:22:21.891Z,63.60
2019-03-26T22:24:55.108Z,64.80
2019-03-26T22:27:28.341Z,63.90
2019-03-26T22:30:01.371Z,64.10
2019-03-26T22:32:34.492Z,64.00
2019-03-26T22:35:08.144Z,64.00
2019-03-26T22:37:41.188Z,63.70
2019-03-26T22:40:14.248Z,64.60
2019-03-26T22:42:47.259Z,64.70
2019-03-26T22:45:20.473Z,64.40
2019-03-26T22:47:53.505Z,64.40
2019-03-26T22:50:26.661Z,65.00
2019-03-26T22:52:59.633Z,64.50
2019-03-26T22:55:32.566Z,64.50
2019-03-26T22:58:05.468Z,65.00
2019-03-26T23:00:38.975Z,64.90
2019-03-26T23:03:11.951Z,65.40
2019-03-26T23:05:45.009Z,65.90
2019-03-26T23:08:17.906Z,65.30
2019-03-26T23:10:51.061Z,65.10
2019-03-26T23:13:24.192Z,65.90
2019-03-26T23:15:57.110Z,65.10
2019-03-26T23:18:30.134Z,65.90
2019-03-26T23:21:03.144Z,65.00
2019-03-26T23:23:35.984Z,65.10
2019-03-26T23:26:08.938Z,65.20
2019-03-26T23:28:41.794Z,65.40
2019-03-26T23:31:15.025Z,65.00
2019-03-26T23:33:47.944Z,65.30
2019-03-26T23:36:20.961Z,65.20
2019-03-26T23:38:53.770Z,65.70
2019-03-26T23:41:26.837Z,65.60
2019-03-26T23:43:59.661Z,65.10
2019-03-26T23:46:32.586Z,65.10
2019-03-26T23:49:05.523Z,65.10
2019-03-26T23:51:38.575Z,66.20
2019-03-26T23:54:11.501Z,65.70
2019-03-26T23:56:44.333Z,65.70
2019-03-26T23:59:17.115Z,66.50
